createdAt,value
2022-11-24T00:01:16.516Z,9.10
2022-11-24T00:03:47.490Z,9.10
2022-11-24T00:06:17.126Z,9.10
2022-11-24T00:08:46.851Z,9.10
2022-11-24T00:11:16.497Z,9.10
2022-11-24T00:13:44.947Z,9.10
2022-11-24T00:16:17.486Z,9.10
2022-11-24T00:18:48.572Z,9.10
2022-11-24T00:21:17.709Z,9.20
2022-11-24T00:23:46.432Z,9.20
2022-11-24T00:26:16.913Z,9.10
2022-11-24T00:28:47.565Z,9.20
2022-11-24T00:31:18.092Z,9.10
2022-11-24T00:33:49.182Z,9.10
2022-11-24T00:36:18.301Z,9.20
2022-11-24T00:38:46.996Z,9.20
2022-11-24T00:41:15.264Z,9.20
2022-11-24T00:43:43.346Z,9.20
2022-11-24T00:46:12.678Z,9.10
2022-11-24T00:48:41.078Z,9.10
2022-11-24T00:51:13.824Z,9.10
2022-11-24T00:53:42.124Z,9.10
2022-11-24T00:56:11.052Z,9.10
2022-11-24T00:58:39.472Z,9.00
2022-11-24T01:01:09.969Z,9.00
2022-11-24T01:03:38.468Z,9.00
2022-11-24T01:06:09.427Z,9.00
2022-11-24T01:08:40.486Z,9.10
2022-11-24T01:11:11.040Z,9.10
2022-11-24T01:13:39.974Z,9.20
2022-11-24T01:16:14.058Z,9.20
2022-11-24T01:18:42.302Z,9.20
2022-11-24T01:21:10.645Z,9.20
2022-11-24T01:23:40.504Z,9.30
2022-11-24T01:26:09.189Z,9.30
2022-11-24T01:28:41.866Z,9.30
2022-11-24T01:31:13.769Z,9.30
2022-11-24T01:33:42.253Z,9.30
2022-11-24T01:36:10.372Z,9.30
2022-11-24T01:38:39.758Z,9.30
2022-11-24T01:41:10.968Z,9.30
2022-11-24T01:43:39.165Z,9.30
2022-11-24T01:46:17.041Z,9.30
2022-11-24T01:48:48.172Z,9.30
2022-11-24T01:51:20.592Z,9.30
2022-11-24T01:53:55.086Z,9.40
2022-11-24T01:56:23.350Z,9.40
2022-11-24T01:58:54.309Z,9.40
2022-11-24T02:01:22.356Z,9.40
2022-11-24T02:03:50.945Z,9.40
2022-11-24T02:06:22.561Z,9.40
2022-11-24T02:08:56.297Z,9.40
2022-11-24T02:11:26.558Z,9.40
2022-11-24T02:13:56.039Z,9.40
2022-11-24T02:16:24.306Z,9.40
2022-11-24T02:18:52.664Z,9.40
2022-11-24T02:21:20.886Z,9.40
2022-11-24T02:23:58.423Z,9.40
2022-11-24T02:26:40.048Z,9.40
2022-11-24T02:29:08.362Z,9.40
2022-11-24T02:31:36.413Z,9.40
2022-11-24T02:34:04.465Z,9.40
2022-11-24T02:36:32.457Z,9.40
2022-11-24T02:39:00.405Z,9.40
2022-11-24T02:41:29.994Z,9.40
2022-11-24T02:44:02.489Z,9.40
2022-11-24T02:46:30.489Z,9.40
2022-11-24T02:48:58.770Z,9.40
2022-11-24T02:51:26.807Z,9.40
2022-11-24T02:53:54.780Z,9.40
2022-11-24T02:56:22.749Z,9.50
2022-11-24T02:58:50.816Z,9.50
2022-11-24T03:01:20.708Z,9.50
2022-11-24T03:03:48.763Z,9.50
2022-11-24T03:06:16.775Z,9.50
2022-11-24T03:08:44.814Z,9.50
2022-11-24T03:11:12.769Z,9.50
2022-11-24T03:13:40.745Z,9.60
2022-11-24T03:16:10.686Z,9.60
2022-11-24T03:18:40.121Z,9.50
2022-11-24T03:21:08.071Z,9.50
2022-11-24T03:23:36.105Z,9.50
2022-11-24T03:26:10.783Z,9.50
2022-11-24T03:28:39.035Z,9.50
2022-11-24T03:31:07.445Z,9.60
2022-11-24T03:33:35.788Z,9.60
2022-11-24T03:36:06.413Z,9.60
2022-11-24T03:38:34.904Z,9.50
2022-11-24T03:41:02.819Z,9.50
2022-11-24T03:43:30.788Z,9.60
2022-11-24T03:45:58.774Z,9.60
2022-11-24T03:48:26.762Z,9.60
2022-11-24T03:50:56.226Z,9.60
2022-11-24T03:53:27.834Z,9.50
2022-11-24T03:55:56.398Z,9.60
2022-11-24T03:58:24.453Z,9.50
2022-11-24T04:00:53.949Z,9.50
2022-11-24T04:03:22.294Z,9.60
2022-11-24T04:05:50.646Z,9.50
2022-11-24T04:08:19.180Z,9.50
2022-11-24T04:10:51.854Z,9.50
2022-11-24T04:13:21.080Z,9.50
2022-11-24T04:15:49.097Z,9.40
2022-11-24T04:18:17.146Z,9.40
2022-11-24T04:20:45.631Z,9.40
2022-11-24T04:23:13.570Z,9.40
2022-11-24T04:25:43.605Z,9.50
2022-11-24T04:28:14.567Z,9.40
2022-11-24T04:30:44.703Z,9.40
2022-11-24T04:33:13.607Z,9.40
2022-11-24T04:35:41.506Z,9.50
2022-11-24T04:38:09.692Z,9.50
2022-11-24T04:40:38.473Z,9.50
2022-11-24T04:43:06.423Z,9.50
2022-11-24T04:45:35.755Z,9.40
2022-11-24T04:48:03.716Z,9.40
2022-11-24T04:50:31.890Z,9.40
2022-11-24T04:52:59.810Z,9.40
2022-11-24T04:55:27.765Z,9.40
2022-11-24T04:57:55.710Z,9.50
2022-11-24T05:00:23.704Z,9.50
2022-11-24T05:02:53.042Z,9.50
2022-11-24T05:05:21.047Z,9.50
2022-11-24T05:07:49.114Z,9.50
2022-11-24T05:10:35.174Z,9.50
2022-11-24T05:13:04.583Z,9.50
2022-11-24T05:15:32.692Z,9.50
2022-11-24T05:18:05.568Z,9.50
2022-11-24T05:20:33.587Z,9.40
2022-11-24T05:23:03.822Z,9.40
2022-11-24T05:25:32.208Z,9.40
2022-11-24T05:28:02.150Z,9.40
2022-11-24T05:30:30.831Z,9.40
2022-11-24T05:32:58.828Z,9.40
2022-11-24T05:35:28.150Z,9.40
2022-11-24T05:37:56.220Z,9.40
2022-11-24T05:40:24.154Z,9.40
2022-11-24T05:42:52.178Z,9.40
2022-11-24T05:45:21.945Z,9.40
2022-11-24T05:47:51.017Z,9.40
2022-11-24T05:50:21.119Z,9.40
2022-11-24T05:52:50.934Z,9.40
2022-11-24T05:55:20.403Z,9.40
2022-11-24T05:57:48.368Z,9.40
2022-11-24T06:00:19.960Z,9.40
2022-11-24T06:02:48.102Z,9.40
2022-11-24T06:05:16.388Z,9.40
2022-11-24T06:07:44.395Z,9.40
2022-11-24T06:10:13.826Z,9.40
2022-11-24T06:12:41.732Z,9.30
2022-11-24T06:15:11.218Z,9.30
2022-11-24T06:17:39.589Z,9.30
2022-11-24T06:20:10.313Z,9.30
2022-11-24T06:22:38.818Z,9.30
2022-11-24T06:25:07.472Z,9.30
2022-11-24T06:27:36.873Z,9.30
2022-11-24T06:30:05.543Z,9.30
2022-11-24T06:32:33.451Z,9.30
2022-11-24T06:35:01.447Z,9.40
2022-11-24T06:37:29.441Z,9.40
2022-11-24T06:39:57.834Z,9.40
2022-11-24T06:42:25.755Z,9.40
2022-11-24T06:44:55.971Z,9.40
2022-11-24T06:47:23.943Z,9.40
2022-11-24T06:49:51.921Z,9.40
2022-11-24T06:52:19.864Z,9.40
2022-11-24T06:54:47.768Z,9.40
2022-11-24T06:57:15.719Z,9.40
2022-11-24T06:59:43.712Z,9.40
2022-11-24T07:02:12.990Z,9.40
2022-11-24T07:04:40.907Z,9.50
2022-11-24T07:07:09.012Z,9.50
2022-11-24T07:09:36.969Z,9.50
2022-11-24T07:12:05.895Z,9.50
2022-11-24T07:14:34.132Z,9.50
2022-11-24T07:17:04.647Z,9.50
2022-11-24T07:19:34.044Z,9.60
2022-11-24T07:22:02.081Z,9.60
2022-11-24T07:24:30.029Z,9.60
2022-11-24T07:26:57.938Z,9.60
2022-11-24T07:29:25.968Z,9.60
2022-11-24T07:31:54.025Z,9.60
2022-11-24T07:34:22.135Z,9.60
2022-11-24T07:36:51.512Z,9.60
2022-11-24T07:39:19.502Z,9.60
2022-11-24T07:41:47.414Z,9.60
2022-11-24T07:44:15.540Z,9.60
2022-11-24T07:46:43.546Z,9.60
2022-11-24T07:49:11.488Z,9.60
2022-11-24T07:51:39.406Z,9.60
2022-11-24T07:54:08.820Z,9.60
2022-11-24T07:56:36.731Z,9.70
2022-11-24T07:59:04.775Z,9.70
2022-11-24T08:01:32.799Z,9.70
2022-11-24T08:04:02.430Z,9.70
2022-11-24T08:06:38.538Z,9.70
2022-11-24T08:09:08.925Z,9.70
2022-11-24T08:11:36.876Z,9.70
2022-11-24T08:14:04.803Z,9.70
2022-11-24T08:16:33.132Z,9.80
2022-11-24T08:19:01.258Z,9.70
2022-11-24T08:21:29.256Z,9.70
2022-11-24T08:23:57.675Z,9.70
2022-11-24T08:26:27.514Z,9.70
2022-11-24T08:28:57.433Z,9.80
2022-11-24T08:31:27.503Z,9.80
2022-11-24T08:33:56.740Z,9.80
2022-11-24T08:36:24.792Z,9.80
2022-11-24T08:38:57.078Z,9.80
2022-11-24T08:41:27.288Z,9.80
2022-11-24T08:43:55.608Z,9.80
2022-11-24T08:46:24.217Z,9.80
2022-11-24T08:48:54.137Z,9.80
2022-11-24T08:51:23.764Z,9.80
2022-11-24T08:53:55.755Z,9.80
2022-11-24T08:56:23.730Z,9.80
2022-11-24T08:58:54.109Z,9.80
2022-11-24T09:01:22.206Z,9.80
2022-11-24T09:03:51.678Z,9.80
2022-11-24T09:06:22.786Z,9.80
2022-11-24T09:08:51.184Z,9.90
2022-11-24T09:11:19.201Z,9.90
2022-11-24T09:13:47.453Z,9.90
2022-11-24T09:16:19.482Z,9.90
2022-11-24T09:18:48.459Z,9.90
2022-11-24T09:21:18.700Z,9.90
2022-11-24T09:23:48.405Z,10.00
2022-11-24T09:26:18.600Z,10.10
2022-11-24T09:28:46.947Z,10.10
2022-11-24T09:31:18.661Z,10.10
2022-11-24T09:33:47.005Z,10.20
2022-11-24T09:36:15.576Z,10.20
2022-11-24T09:38:44.101Z,10.20
2022-11-24T09:41:41.861Z,10.20
2022-11-24T09:44:21.664Z,10.20
2022-11-24T09:47:00.484Z,10.20
2022-11-24T09:49:36.122Z,10.20
2022-11-24T09:52:10.894Z,10.20
2022-11-24T09:54:45.797Z,10.20
2022-11-24T09:57:16.088Z,10.20
2022-11-24T09:59:44.313Z,10.30
2022-11-24T10:02:13.962Z,10.20
2022-11-24T10:04:44.536Z,10.30
2022-11-24T10:07:22.031Z,10.30
2022-11-24T10:10:04.196Z,10.20
2022-11-24T10:12:43.963Z,10.20
2022-11-24T10:15:38.848Z,10.20
2022-11-24T10:18:32.887Z,10.20
2022-11-24T10:21:13.904Z,10.20
2022-11-24T10:23:55.996Z,10.20
2022-11-24T10:26:33.167Z,10.30
2022-11-24T10:29:08.534Z,10.30
2022-11-24T10:31:39.095Z,10.30
2022-11-24T10:34:26.113Z,10.30
2022-11-24T10:36:59.268Z,10.30
2022-11-24T10:39:33.582Z,10.30
2022-11-24T10:42:06.758Z,10.40
2022-11-24T10:44:34.911Z,10.40
2022-11-24T10:47:02.911Z,10.40
2022-11-24T10:49:34.301Z,10.40
2022-11-24T10:52:08.527Z,10.40
2022-11-24T10:54:37.026Z,10.50
2022-11-24T10:57:05.209Z,10.50
2022-11-24T10:59:38.676Z,10.50
2022-11-24T11:02:33.148Z,10.50
2022-11-24T11:05:28.043Z,10.60
2022-11-24T11:08:21.694Z,10.60
2022-11-24T11:10:51.601Z,10.70
2022-11-24T11:13:24.476Z,10.70
2022-11-24T11:15:52.563Z,10.60
2022-11-24T11:18:21.990Z,10.70
2022-11-24T11:20:53.569Z,10.70
2022-11-24T11:23:28.780Z,10.70
2022-11-24T11:26:20.274Z,10.70
2022-11-24T11:31:15.313Z,10.80
2022-11-24T11:34:49.340Z,10.80
2022-11-24T11:37:20.821Z,10.80
2022-11-24T11:39:50.960Z,10.80
2022-11-24T11:43:00.144Z,10.80
2022-11-24T11:45:17.358Z,10.90
2022-11-24T11:47:50.908Z,10.90
2022-11-24T11:50:25.408Z,10.90
2022-11-24T11:53:06.195Z,10.90
2022-11-24T11:56:03.920Z,10.90
2022-11-24T11:59:06.268Z,10.90
2022-11-24T12:01:47.558Z,10.90
2022-11-24T12:04:28.584Z,10.90
2022-11-24T12:07:08.703Z,10.90
2022-11-24T12:09:58.811Z,10.90
2022-11-24T12:12:50.453Z,10.80
2022-11-24T12:15:26.352Z,10.90
2022-11-24T12:17:58.240Z,10.90
2022-11-24T12:20:38.863Z,10.90
2022-11-24T12:23:17.145Z,10.90
2022-11-24T12:25:51.837Z,10.90
2022-11-24T12:28:33.568Z,10.90
2022-11-24T12:31:07.699Z,10.90
2022-11-24T12:34:01.489Z,10.90
2022-11-24T12:36:42.754Z,10.90
2022-11-24T12:39:25.816Z,10.90
2022-11-24T12:42:06.197Z,10.90
2022-11-24T12:45:00.775Z,10.90
2022-11-24T12:47:38.496Z,10.90
2022-11-24T12:50:10.762Z,10.90
2022-11-24T12:52:41.738Z,11.00
2022-11-24T12:55:18.014Z,11.00
2022-11-24T12:57:55.621Z,10.90
2022-11-24T13:00:26.115Z,10.90
2022-11-24T13:03:17.600Z,10.90
2022-11-24T13:05:53.837Z,10.90
2022-11-24T13:08:22.908Z,10.90
2022-11-24T13:10:58.372Z,10.80
2022-11-24T13:13:50.664Z,10.80
2022-11-24T13:16:35.671Z,10.80
2022-11-24T13:19:13.648Z,10.80
2022-11-24T13:22:01.776Z,10.90
2022-11-24T13:24:32.036Z,10.80
2022-11-24T13:27:29.586Z,10.80
2022-11-24T13:29:57.540Z,10.80
2022-11-24T13:32:47.370Z,10.80
2022-11-24T13:35:16.771Z,10.80
2022-11-24T13:37:51.609Z,10.80
2022-11-24T13:40:59.768Z,10.80
2022-11-24T13:43:31.270Z,10.80
2022-11-24T13:45:59.169Z,10.80
2022-11-24T13:49:14.523Z,10.80
2022-11-24T13:51:42.412Z,10.80
2022-11-24T13:54:11.917Z,10.80
2022-11-24T13:56:39.913Z,10.70
2022-11-24T13:59:18.689Z,10.80
2022-11-24T14:01:57.192Z,10.80
2022-11-24T14:04:31.445Z,10.80
2022-11-24T14:07:08.017Z,10.80
2022-11-24T14:09:41.740Z,10.80
2022-11-24T14:12:15.035Z,10.80
2022-11-24T14:14:44.151Z,10.80
2022-11-24T14:17:18.998Z,10.80
2022-11-24T14:19:50.006Z,10.80
2022-11-24T14:22:21.317Z,10.80
2022-11-24T14:24:57.247Z,10.80
2022-11-24T14:27:29.935Z,10.80
2022-11-24T14:29:59.288Z,10.90
2022-11-24T14:32:27.533Z,10.90
2022-11-24T14:34:57.118Z,11.00
2022-11-24T14:37:25.359Z,11.00
2022-11-24T14:39:53.392Z,11.10
2022-11-24T14:42:23.887Z,11.10
2022-11-24T14:44:55.543Z,11.10
2022-11-24T14:47:31.871Z,11.10
2022-11-24T14:50:11.155Z,11.10
2022-11-24T14:52:46.266Z,11.10
2022-11-24T14:55:29.278Z,11.10
2022-11-24T14:57:57.805Z,11.20
2022-11-24T15:00:30.327Z,11.20
2022-11-24T15:03:15.914Z,11.20
2022-11-24T15:05:57.305Z,11.20
2022-11-24T15:08:27.263Z,11.30
2022-11-24T15:11:01.296Z,11.30
2022-11-24T15:13:30.909Z,11.30
2022-11-24T15:16:03.604Z,11.30
2022-11-24T15:18:38.393Z,11.30
2022-11-24T15:21:07.935Z,11.30
2022-11-24T15:23:37.519Z,11.30
2022-11-24T15:26:30.770Z,11.30
2022-11-24T15:29:00.160Z,11.30
2022-11-24T15:31:28.225Z,11.30
2022-11-24T15:33:56.306Z,11.30
2022-11-24T15:36:25.669Z,11.30
2022-11-24T15:38:53.692Z,11.30
2022-11-24T15:41:23.056Z,11.20
2022-11-24T15:43:51.050Z,11.20
2022-11-24T15:46:19.003Z,11.20
2022-11-24T15:48:47.024Z,11.20
2022-11-24T15:51:15.861Z,11.20
2022-11-24T15:53:47.667Z,11.20
2022-11-24T15:56:20.720Z,11.10
2022-11-24T15:58:48.639Z,11.10
2022-11-24T16:01:16.722Z,11.10
2022-11-24T16:03:47.877Z,11.00
2022-11-24T16:06:24.226Z,11.00
2022-11-24T16:08:54.665Z,11.00
2022-11-24T16:11:23.346Z,11.00
2022-11-24T16:13:54.042Z,11.00
2022-11-24T16:16:23.283Z,11.00
2022-11-24T16:18:51.622Z,11.00
2022-11-24T16:21:19.681Z,11.00
2022-11-24T16:23:48.609Z,10.90
2022-11-24T16:26:17.939Z,10.90
2022-11-24T16:28:46.163Z,10.90
2022-11-24T16:31:15.811Z,10.90
2022-11-24T16:33:44.679Z,10.90
2022-11-24T16:36:13.073Z,10.90
2022-11-24T16:38:40.987Z,10.90
2022-11-24T16:41:10.359Z,10.90
2022-11-24T16:43:40.035Z,10.90
2022-11-24T16:46:18.796Z,10.90
2022-11-24T16:48:47.652Z,10.90
2022-11-24T16:51:16.230Z,10.90
2022-11-24T16:53:44.443Z,10.90
2022-11-24T16:56:12.673Z,10.80
2022-11-24T16:58:42.549Z,10.80
2022-11-24T17:01:12.503Z,10.80
2022-11-24T17:03:41.048Z,10.80
2022-11-24T17:06:11.240Z,10.80
2022-11-24T17:08:41.298Z,10.70
2022-11-24T17:11:10.292Z,10.70
2022-11-24T17:13:38.866Z,10.70
2022-11-24T17:16:10.823Z,10.70
2022-11-24T17:18:39.857Z,10.70
2022-11-24T17:21:12.458Z,10.60
2022-11-24T17:23:40.937Z,10.60
2022-11-24T17:26:12.757Z,10.60
2022-11-24T17:28:44.422Z,10.60
2022-11-24T17:31:20.763Z,10.60
2022-11-24T17:33:48.781Z,10.50
2022-11-24T17:36:16.939Z,10.50
2022-11-24T17:38:44.861Z,10.50
2022-11-24T17:41:13.079Z,10.40
2022-11-24T17:43:41.026Z,10.40
2022-11-24T17:46:10.969Z,10.40
2022-11-24T17:48:40.698Z,10.30
2022-11-24T17:51:12.798Z,10.30
2022-11-24T17:53:42.040Z,10.20
2022-11-24T17:56:13.363Z,10.20
2022-11-24T17:58:43.318Z,10.10
2022-11-24T18:01:12.377Z,10.10
2022-11-24T18:03:42.153Z,10.00
2022-11-24T18:06:11.738Z,10.00
2022-11-24T18:08:41.811Z,10.00
2022-11-24T18:11:12.371Z,9.90
2022-11-24T18:14:00.323Z,9.80
2022-11-24T18:16:30.206Z,9.70
2022-11-24T18:19:10.149Z,9.60
2022-11-24T18:21:39.886Z,9.60
2022-11-24T18:24:08.395Z,9.50
2022-11-24T18:26:36.325Z,9.50
2022-11-24T18:29:04.463Z,9.40
2022-11-24T18:31:34.255Z,9.40
2022-11-24T18:34:04.981Z,9.30
2022-11-24T18:36:33.752Z,9.30
2022-11-24T18:39:02.157Z,9.30
2022-11-24T18:41:30.172Z,9.20
2022-11-24T18:44:00.238Z,9.20
2022-11-24T18:46:28.411Z,9.10
2022-11-24T18:48:56.377Z,9.00
2022-11-24T18:51:25.641Z,9.00
2022-11-24T18:53:57.835Z,8.90
2022-11-24T18:56:26.438Z,8.90
2022-11-24T18:58:55.866Z,8.80
2022-11-24T19:01:26.086Z,8.80
2022-11-24T19:03:55.541Z,8.90
2022-11-24T19:06:28.754Z,8.90
2022-11-24T19:08:57.243Z,8.80
2022-11-24T19:11:28.108Z,8.80
2022-11-24T19:13:56.762Z,8.70
2022-11-24T19:16:26.068Z,8.70
2022-11-24T19:18:57.143Z,8.70
2022-11-24T19:21:26.851Z,8.70
2022-11-24T19:23:57.524Z,8.70
2022-11-24T19:26:27.873Z,8.60
2022-11-24T19:28:55.858Z,8.60
2022-11-24T19:31:23.900Z,8.60
2022-11-24T19:33:52.832Z,8.50
2022-11-24T19:36:22.131Z,8.50
2022-11-24T19:38:52.698Z,8.40
2022-11-24T19:41:23.179Z,8.30
2022-11-24T19:43:53.310Z,8.30
2022-11-24T19:46:22.448Z,8.30
2022-11-24T19:48:54.059Z,8.30
2022-11-24T19:51:25.995Z,8.30
2022-11-24T19:53:55.302Z,8.30
2022-11-24T19:56:24.928Z,8.30
2022-11-24T19:58:53.874Z,8.40
2022-11-24T20:01:24.650Z,8.50
2022-11-24T20:03:58.630Z,8.50
2022-11-24T20:06:27.998Z,8.50
2022-11-24T20:08:58.921Z,8.50
2022-11-24T20:11:27.616Z,8.50
2022-11-24T20:13:56.011Z,8.50
2022-11-24T20:16:28.050Z,8.50
2022-11-24T20:18:57.722Z,8.50
2022-11-24T20:21:28.542Z,8.50
2022-11-24T20:23:59.724Z,8.40
2022-11-24T20:26:29.531Z,8.40
2022-11-24T20:28:58.770Z,8.30
2022-11-24T20:31:29.624Z,8.30
2022-11-24T20:33:57.912Z,8.20
2022-11-24T20:36:27.417Z,8.20
2022-11-24T20:38:57.148Z,8.20
2022-11-24T20:41:27.067Z,8.20
2022-11-24T20:43:57.406Z,8.20
2022-11-24T20:46:29.133Z,8.20
2022-11-24T20:48:58.397Z,8.10
2022-11-24T20:51:28.806Z,8.10
2022-11-24T20:53:59.710Z,8.10
2022-11-24T20:56:29.971Z,8.10
2022-11-24T20:59:00.174Z,8.10
2022-11-24T21:01:30.280Z,8.10
2022-11-24T21:04:00.244Z,8.00
2022-11-24T21:06:29.598Z,8.00
2022-11-24T21:09:03.767Z,7.90
2022-11-24T21:11:32.746Z,7.90
2022-11-24T21:14:01.159Z,7.90
2022-11-24T21:16:31.012Z,7.90
2022-11-24T21:19:00.881Z,7.90
2022-11-24T21:21:33.408Z,7.90
2022-11-24T21:24:02.864Z,7.90
2022-11-24T21:26:30.838Z,7.90
2022-11-24T21:28:59.106Z,7.90
2022-11-24T21:31:27.076Z,7.80
2022-11-24T21:33:55.773Z,7.80
2022-11-24T21:36:25.588Z,7.80
2022-11-24T21:38:54.973Z,7.80
2022-11-24T21:41:25.675Z,7.80
2022-11-24T21:43:55.985Z,7.90
2022-11-24T21:46:24.841Z,7.90
2022-11-24T21:48:52.789Z,7.80
2022-11-24T21:51:22.281Z,7.80
2022-11-24T21:53:50.224Z,7.80
2022-11-24T21:56:20.422Z,7.80
2022-11-24T21:58:51.477Z,7.70
2022-11-24T22:01:21.423Z,7.70
2022-11-24T22:03:49.726Z,7.70
2022-11-24T22:06:19.205Z,7.70
2022-11-24T22:08:47.905Z,7.70
2022-11-24T22:11:18.040Z,7.70
2022-11-24T22:13:47.053Z,7.70
2022-11-24T22:16:18.039Z,7.60
2022-11-24T22:18:47.655Z,7.60
2022-11-24T22:21:17.459Z,7.50
2022-11-24T22:23:46.246Z,7.40
2022-11-24T22:26:16.913Z,7.40
2022-11-24T22:28:45.890Z,7.40
2022-11-24T22:31:16.647Z,7.40
2022-11-24T22:33:44.929Z,7.50
2022-11-24T22:36:13.841Z,7.40
2022-11-24T22:38:42.229Z,7.40
2022-11-24T22:41:11.959Z,7.30
2022-11-24T22:43:41.524Z,7.30
2022-11-24T22:46:11.909Z,7.30
2022-11-24T22:48:41.877Z,7.30
2022-11-24T22:51:12.272Z,7.30
2022-11-24T22:53:41.024Z,7.30
2022-11-24T22:56:12.198Z,7.20
2022-11-24T22:58:40.633Z,7.20
2022-11-24T23:01:11.346Z,7.20
2022-11-24T23:03:42.216Z,7.20
2022-11-24T23:06:13.270Z,7.20
2022-11-24T23:08:41.666Z,7.20
2022-11-24T23:11:11.918Z,7.20
2022-11-24T23:13:40.377Z,7.10
2022-11-24T23:16:10.782Z,7.20
2022-11-24T23:18:39.308Z,7.10
2022-11-24T23:21:12.114Z,7.10
2022-11-24T23:23:40.713Z,7.00
2022-11-24T23:26:11.044Z,7.00
2022-11-24T23:28:39.774Z,7.00
2022-11-24T23:31:09.790Z,6.90
2022-11-24T23:33:38.346Z,6.90
2022-11-24T23:36:09.588Z,6.90
2022-11-24T23:38:37.760Z,6.80
2022-11-24T23:41:07.306Z,6.80
2022-11-24T23:43:38.071Z,6.90
2022-11-24T23:46:07.675Z,6.90
2022-11-24T23:48:36.181Z,6.90
2022-11-24T23:51:11.382Z,6.90
2022-11-24T23:53:39.675Z,6.90
2022-11-24T23:56:08.467Z,6.90
2022-11-24T23:58:36.567Z,6.80
